Denver, Colorado
Traffic Map
Current Weather Conditions
Denver, Colorado
Few Clouds
Few Clouds
62°
Feels Like: 62°
Wind Chill: 62° Ceiling: Unl
Heat Index: 62° Visibility: 10mi
Dew Point: 51° Wind: 10mph
Humidity: 67% Direction: 190° (S)
Pressure: 30.03in Gusts: 0mph
Raw Report DataKDEN 220853Z 19009KT 10SM FEW180 17/11 A3003 RMK AO2 SLP086 T01670106 58016
Traffic Incident Summary
Active as of:
Severity:
Category:
InformationThere was an issue retrieving the traffic information for this location. Please try a different location or try again shortly.
Advertisements